sensor_id;sensor_type;location;lat;lon;timestamp;pressure;altitude;pressure_sealevel;temperature;humidity
23361;BME280;11852;50.082;18.554;2023-12-20T00:00:54;98053.0;;;7.7;58.75
23361;BME280;11852;50.082;18.554;2023-12-20T00:02:01;98064.0;;;7.64;58.47
23361;BME280;11852;50.082;18.554;2023-12-20T00:03:06;98066.0;;;7.44;58.5
23361;BME280;11852;50.082;18.554;2023-12-20T00:04:12;98076.0;;;7.39;58.66
23361;BME280;11852;50.082;18.554;2023-12-20T00:05:17;98081.0;;;7.46;58.86
23361;BME280;11852;50.082;18.554;2023-12-20T00:06:22;98076.0;;;7.58;58.99
23361;BME280;11852;50.082;18.554;2023-12-20T00:07:27;98081.0;;;7.61;58.6
23361;BME280;11852;50.082;18.554;2023-12-20T00:08:32;98075.0;;;7.5;58.74
23361;BME280;11852;50.082;18.554;2023-12-20T00:09:37;98071.0;;;7.47;58.56
23361;BME280;11852;50.082;18.554;2023-12-20T00:10:43;98068.0;;;7.54;58.57
23361;BME280;11852;50.082;18.554;2023-12-20T00:11:49;98065.0;;;7.59;59.1
23361;BME280;11852;50.082;18.554;2023-12-20T00:12:54;98058.0;;;7.56;59.59
23361;BME280;11852;50.082;18.554;2023-12-20T00:13:59;98064.0;;;7.62;59.29
23361;BME280;11852;50.082;18.554;2023-12-20T00:15:05;98049.0;;;7.59;59.11
23361;BME280;11852;50.082;18.554;2023-12-20T00:16:12;98054.0;;;7.61;58.69
23361;BME280;11852;50.082;18.554;2023-12-20T00:17:17;98047.0;;;7.48;58.94
23361;BME280;11852;50.082;18.554;2023-12-20T00:18:23;98054.0;;;7.58;58.72
23361;BME280;11852;50.082;18.554;2023-12-20T00:19:29;98050.0;;;7.45;58.75
23361;BME280;11852;50.082;18.554;2023-12-20T00:20:34;98046.0;;;7.06;58.84
23361;BME280;11852;50.082;18.554;2023-12-20T00:21:40;98054.0;;;7.18;59.49
23361;BME280;11852;50.082;18.554;2023-12-20T00:22:47;98055.0;;;7.41;59.14
23361;BME280;11852;50.082;18.554;2023-12-20T00:23:52;98059.0;;;7.54;59.03
23361;BME280;11852;50.082;18.554;2023-12-20T00:24:57;98064.0;;;7.57;58.45
23361;BME280;11852;50.082;18.554;2023-12-20T00:26:02;98063.0;;;7.4;58.77
23361;BME280;11852;50.082;18.554;2023-12-20T00:27:07;98064.0;;;7.42;58.8
23361;BME280;11852;50.082;18.554;2023-12-20T00:28:12;98063.0;;;7.55;58.79
23361;BME280;11852;50.082;18.554;2023-12-20T00:29:18;98064.0;;;7.49;58.5
23361;BME280;11852;50.082;18.554;2023-12-20T00:30:24;98057.0;;;7.26;58.61
23361;BME280;11852;50.082;18.554;2023-12-20T00:31:30;98059.0;;;7.43;58.89
23361;BME280;11852;50.082;18.554;2023-12-20T00:32:35;98052.0;;;7.49;58.67
23361;BME280;11852;50.082;18.554;2023-12-20T00:33:41;98045.0;;;7.46;58.7
23361;BME280;11852;50.082;18.554;2023-12-20T00:34:46;98052.0;;;7.41;58.54
23361;BME280;11852;50.082;18.554;2023-12-20T00:35:51;98061.0;;;7.24;58.97
23361;BME280;11852;50.082;18.554;2023-12-20T00:36:56;98057.0;;;7.45;58.87
23361;BME280;11852;50.082;18.554;2023-12-20T00:38:03;98060.0;;;7.28;58.92
23361;BME280;11852;50.082;18.554;2023-12-20T00:39:08;98075.0;;;7.4;58.92
23361;BME280;11852;50.082;18.554;2023-12-20T00:40:13;98035.0;;;7.18;59.47
23361;BME280;11852;50.082;18.554;2023-12-20T00:41:18;98044.0;;;7.35;59.08
23361;BME280;11852;50.082;18.554;2023-12-20T00:42:23;98031.0;;;7.02;59.45
23361;BME280;11852;50.082;18.554;2023-12-20T00:43:29;98041.0;;;7.11;59.27
23361;BME280;11852;50.082;18.554;2023-12-20T00:44:35;98057.0;;;7.17;59.39
23361;BME280;11852;50.082;18.554;2023-12-20T00:45:42;98052.0;;;7.13;59.44
23361;BME280;11852;50.082;18.554;2023-12-20T00:46:48;98064.0;;;7.21;59.34
23361;BME280;11852;50.082;18.554;2023-12-20T00:47:53;98042.0;;;7.28;59.33
23361;BME280;11852;50.082;18.554;2023-12-20T00:48:59;98027.0;;;7.24;59.28
23361;BME280;11852;50.082;18.554;2023-12-20T00:50:06;98038.0;;;7.16;59.32
23361;BME280;11852;50.082;18.554;2023-12-20T00:52:20;98034.0;;;7.38;59.36
23361;BME280;11852;50.082;18.554;2023-12-20T00:53:26;98023.0;;;7.34;59.45
23361;BME280;11852;50.082;18.554;2023-12-20T00:54:32;98018.0;;;7.35;59.4
23361;BME280;11852;50.082;18.554;2023-12-20T00:55:37;98019.0;;;7.16;59.17
23361;BME280;11852;50.082;18.554;2023-12-20T00:56:43;98016.0;;;7.18;59.49
23361;BME280;11852;50.082;18.554;2023-12-20T00:59:49;98028.0;;;7.19;59.96
23361;BME280;11852;50.082;18.554;2023-12-20T01:00:54;98016.0;;;7.14;60.1
23361;BME280;11852;50.082;18.554;2023-12-20T01:01:59;98017.0;;;7.26;60.0
23361;BME280;11852;50.082;18.554;2023-12-20T01:03:04;98006.0;;;7.33;59.77
23361;BME280;11852;50.082;18.554;2023-12-20T01:04:09;97987.0;;;7.39;59.55
23361;BME280;11852;50.082;18.554;2023-12-20T01:05:15;97986.0;;;7.33;59.83
23361;BME280;11852;50.082;18.554;2023-12-20T01:06:39;97997.0;;;7.15;60.32
23361;BME280;11852;50.082;18.554;2023-12-20T01:07:44;97992.0;;;7.03;60.18
23361;BME280;11852;50.082;18.554;2023-12-20T01:08:50;98000.0;;;7.17;60.2
23361;BME280;11852;50.082;18.554;2023-12-20T01:09:55;97990.0;;;7.24;60.24
23361;BME280;11852;50.082;18.554;2023-12-20T01:11:00;97991.0;;;7.19;60.13
23361;BME280;11852;50.082;18.554;2023-12-20T01:12:07;97997.0;;;7.07;60.12
23361;BME280;11852;50.082;18.554;2023-12-20T01:13:13;97997.0;;;7.11;60.11
23361;BME280;11852;50.082;18.554;2023-12-20T01:14:18;97992.0;;;7.24;60.04
23361;BME280;11852;50.082;18.554;2023-12-20T01:15:23;97990.0;;;7.13;60.11
23361;BME280;11852;50.082;18.554;2023-12-20T01:16:28;97989.0;;;7.21;60.26
23361;BME280;11852;50.082;18.554;2023-12-20T01:17:33;97989.0;;;7.03;60.55
23361;BME280;11852;50.082;18.554;2023-12-20T01:18:40;97987.0;;;6.93;60.21
23361;BME280;11852;50.082;18.554;2023-12-20T01:19:45;97983.0;;;7.0;60.48
23361;BME280;11852;50.082;18.554;2023-12-20T01:20:49;97979.0;;;7.15;60.26
23361;BME280;11852;50.082;18.554;2023-12-20T01:21:55;97969.0;;;7.12;60.23
23361;BME280;11852;50.082;18.554;2023-12-20T01:22:59;97984.0;;;7.04;60.35
23361;BME280;11852;50.082;18.554;2023-12-20T01:24:04;97996.0;;;6.96;60.73
23361;BME280;11852;50.082;18.554;2023-12-20T01:25:09;97986.0;;;6.94;60.99
23361;BME280;11852;50.082;18.554;2023-12-20T01:26:14;97977.0;;;6.9;61.23
23361;BME280;11852;50.082;18.554;2023-12-20T01:27:19;97984.0;;;6.95;61.06
23361;BME280;11852;50.082;18.554;2023-12-20T01:28:24;97984.0;;;7.07;60.91
23361;BME280;11852;50.082;18.554;2023-12-20T01:29:30;97974.0;;;7.06;61.05
23361;BME280;11852;50.082;18.554;2023-12-20T01:30:35;97983.0;;;6.96;60.9
23361;BME280;11852;50.082;18.554;2023-12-20T01:31:40;97985.0;;;6.92;61.09
23361;BME280;11852;50.082;18.554;2023-12-20T01:32:44;97988.0;;;7.01;60.97
23361;BME280;11852;50.082;18.554;2023-12-20T01:33:50;97991.0;;;7.08;60.91
23361;BME280;11852;50.082;18.554;2023-12-20T01:34:55;97989.0;;;6.82;60.72
23361;BME280;11852;50.082;18.554;2023-12-20T01:36:00;97986.0;;;6.83;61.41
23361;BME280;11852;50.082;18.554;2023-12-20T01:37:06;97987.0;;;6.66;61.5
23361;BME280;11852;50.082;18.554;2023-12-20T01:38:11;97986.0;;;6.75;61.38
23361;BME280;11852;50.082;18.554;2023-12-20T01:39:17;97988.0;;;6.91;61.25
23361;BME280;11852;50.082;18.554;2023-12-20T01:40:24;97984.0;;;6.95;61.2
23361;BME280;11852;50.082;18.554;2023-12-20T01:41:31;97978.0;;;6.85;60.92
23361;BME280;11852;50.082;18.554;2023-12-20T01:42:36;97976.0;;;6.87;61.13
23361;BME280;11852;50.082;18.554;2023-12-20T01:43:41;97976.0;;;6.93;61.19
23361;BME280;11852;50.082;18.554;2023-12-20T01:44:47;97978.0;;;6.99;61.21
23361;BME280;11852;50.082;18.554;2023-12-20T01:45:51;97968.0;;;6.85;61.09
23361;BME280;11852;50.082;18.554;2023-12-20T01:46:57;97965.0;;;6.85;61.11
23361;BME280;11852;50.082;18.554;2023-12-20T01:48:13;97961.0;;;6.79;61.41
23361;BME280;11852;50.082;18.554;2023-12-20T01:49:18;97969.0;;;7.0;61.03
23361;BME280;11852;50.082;18.554;2023-12-20T01:50:24;97962.0;;;6.98;61.16
23361;BME280;11852;50.082;18.554;2023-12-20T01:51:29;97952.0;;;7.0;60.9
23361;BME280;11852;50.082;18.554;2023-12-20T01:52:34;97968.0;;;6.91;61.04
23361;BME280;11852;50.082;18.554;2023-12-20T01:53:39;97973.0;;;6.79;61.08
23361;BME280;11852;50.082;18.554;2023-12-20T01:54:44;97966.0;;;6.84;61.35
23361;BME280;11852;50.082;18.554;2023-12-20T01:55:50;97974.0;;;6.74;61.32
23361;BME280;11852;50.082;18.554;2023-12-20T01:56:55;97967.0;;;6.76;61.45
23361;BME280;11852;50.082;18.554;2023-12-20T01:58:01;97968.0;;;6.82;61.74
23361;BME280;11852;50.082;18.554;2023-12-20T01:59:08;97977.0;;;6.95;61.27
23361;BME280;11852;50.082;18.554;2023-12-20T02:00:16;97974.0;;;6.76;61.44
23361;BME280;11852;50.082;18.554;2023-12-20T02:01:21;97978.0;;;6.9;61.5
23361;BME280;11852;50.082;18.554;2023-12-20T02:02:26;97964.0;;;6.78;61.4
23361;BME280;11852;50.082;18.554;2023-12-20T02:03:31;97960.0;;;6.88;61.27
23361;BME280;11852;50.082;18.554;2023-12-20T02:04:37;97955.0;;;6.88;61.53
23361;BME280;11852;50.082;18.554;2023-12-20T02:05:42;97959.0;;;6.78;61.3
23361;BME280;11852;50.082;18.554;2023-12-20T02:06:53;97963.0;;;6.63;61.38
23361;BME280;11852;50.082;18.554;2023-12-20T02:08:00;97954.0;;;6.8;61.37
23361;BME280;11852;50.082;18.554;2023-12-20T02:09:05;97952.0;;;6.94;61.32
23361;BME280;11852;50.082;18.554;2023-12-20T02:10:10;97957.0;;;6.89;61.44
23361;BME280;11852;50.082;18.554;2023-12-20T02:11:18;97952.0;;;6.81;61.42
23361;BME280;11852;50.082;18.554;2023-12-20T02:12:23;97951.0;;;6.78;61.32
23361;BME280;11852;50.082;18.554;2023-12-20T02:13:28;97957.0;;;6.88;61.33
23361;BME280;11852;50.082;18.554;2023-12-20T02:14:33;97953.0;;;6.4;61.68
23361;BME280;11852;50.082;18.554;2023-12-20T02:15:38;97972.0;;;6.71;61.56
23361;BME280;11852;50.082;18.554;2023-12-20T02:16:43;97971.0;;;6.78;61.67
23361;BME280;11852;50.082;18.554;2023-12-20T02:17:48;97966.0;;;6.45;61.5
23361;BME280;11852;50.082;18.554;2023-12-20T02:18:53;97960.0;;;6.51;61.58
23361;BME280;11852;50.082;18.554;2023-12-20T02:19:58;97963.0;;;6.34;62.07
23361;BME280;11852;50.082;18.554;2023-12-20T02:21:04;97965.0;;;6.57;61.78
23361;BME280;11852;50.082;18.554;2023-12-20T02:22:09;97964.0;;;6.58;61.89
23361;BME280;11852;50.082;18.554;2023-12-20T02:23:14;97963.0;;;6.71;61.56
23361;BME280;11852;50.082;18.554;2023-12-20T02:24:19;97965.0;;;6.56;61.76
23361;BME280;11852;50.082;18.554;2023-12-20T02:25:24;97953.0;;;6.72;61.59
23361;BME280;11852;50.082;18.554;2023-12-20T02:26:29;97942.0;;;6.87;61.43
23361;BME280;11852;50.082;18.554;2023-12-20T02:27:34;97937.0;;;6.9;61.37
23361;BME280;11852;50.082;18.554;2023-12-20T02:28:39;97933.0;;;6.82;61.36
23361;BME280;11852;50.082;18.554;2023-12-20T02:29:44;97934.0;;;6.75;61.1
23361;BME280;11852;50.082;18.554;2023-12-20T02:30:49;97939.0;;;6.87;61.23
23361;BME280;11852;50.082;18.554;2023-12-20T02:31:54;97932.0;;;6.83;61.28
23361;BME280;11852;50.082;18.554;2023-12-20T02:33:00;97939.0;;;6.87;61.11
23361;BME280;11852;50.082;18.554;2023-12-20T02:34:05;97942.0;;;6.91;61.04
23361;BME280;11852;50.082;18.554;2023-12-20T02:35:10;97932.0;;;6.76;61.25
23361;BME280;11852;50.082;18.554;2023-12-20T02:36:15;97940.0;;;6.56;61.71
23361;BME280;11852;50.082;18.554;2023-12-20T02:37:20;97944.0;;;6.69;61.65
23361;BME280;11852;50.082;18.554;2023-12-20T02:38:25;97942.0;;;6.62;61.75
23361;BME280;11852;50.082;18.554;2023-12-20T02:39:30;97939.0;;;6.45;62.44
23361;BME280;11852;50.082;18.554;2023-12-20T02:40:36;97941.0;;;6.64;62.29
23361;BME280;11852;50.082;18.554;2023-12-20T02:41:42;97936.0;;;6.57;62.35
23361;BME280;11852;50.082;18.554;2023-12-20T02:42:47;97931.0;;;6.75;62.0
23361;BME280;11852;50.082;18.554;2023-12-20T02:43:52;97933.0;;;6.69;61.89
23361;BME280;11852;50.082;18.554;2023-12-20T02:44:58;97934.0;;;6.84;61.95
23361;BME280;11852;50.082;18.554;2023-12-20T02:46:04;97938.0;;;6.54;61.77
23361;BME280;11852;50.082;18.554;2023-12-20T02:47:09;97934.0;;;6.43;63.75
23361;BME280;11852;50.082;18.554;2023-12-20T02:48:28;97929.0;;;6.64;64.18
23361;BME280;11852;50.082;18.554;2023-12-20T02:49:35;97925.0;;;6.61;65.05
23361;BME280;11852;50.082;18.554;2023-12-20T02:50:49;97929.0;;;6.64;66.0
23361;BME280;11852;50.082;18.554;2023-12-20T02:51:55;97932.0;;;6.73;66.43
23361;BME280;11852;50.082;18.554;2023-12-20T02:53:01;97926.0;;;6.68;68.82
23361;BME280;11852;50.082;18.554;2023-12-20T02:54:07;97924.0;;;6.71;69.76
23361;BME280;11852;50.082;18.554;2023-12-20T02:55:13;97927.0;;;6.74;70.88
23361;BME280;11852;50.082;18.554;2023-12-20T02:56:23;97938.0;;;6.66;72.97
23361;BME280;11852;50.082;18.554;2023-12-20T02:57:32;97940.0;;;6.66;73.82
23361;BME280;11852;50.082;18.554;2023-12-20T02:58:43;97939.0;;;6.65;74.6
23361;BME280;11852;50.082;18.554;2023-12-20T02:59:55;97936.0;;;6.61;75.09
23361;BME280;11852;50.082;18.554;2023-12-20T03:00:59;97942.0;;;6.08;75.64
23361;BME280;11852;50.082;18.554;2023-12-20T03:02:06;97949.0;;;6.06;76.92
23361;BME280;11852;50.082;18.554;2023-12-20T03:03:11;97956.0;;;6.22;77.09
23361;BME280;11852;50.082;18.554;2023-12-20T03:04:16;97951.0;;;6.28;77.2
23361;BME280;11852;50.082;18.554;2023-12-20T03:05:22;97956.0;;;6.25;78.71
23361;BME280;11852;50.082;18.554;2023-12-20T03:06:27;97951.0;;;6.15;80.42
23361;BME280;11852;50.082;18.554;2023-12-20T03:07:33;97948.0;;;5.98;81.56
23361;BME280;11852;50.082;18.554;2023-12-20T03:08:38;97944.0;;;5.99;81.9
23361;BME280;11852;50.082;18.554;2023-12-20T03:09:43;97947.0;;;5.99;82.69
23361;BME280;11852;50.082;18.554;2023-12-20T03:10:49;97943.0;;;5.91;83.04
23361;BME280;11852;50.082;18.554;2023-12-20T03:11:54;97940.0;;;6.0;82.62
23361;BME280;11852;50.082;18.554;2023-12-20T03:12:59;97936.0;;;5.99;82.65
23361;BME280;11852;50.082;18.554;2023-12-20T03:14:05;97932.0;;;5.8;83.99
23361;BME280;11852;50.082;18.554;2023-12-20T03:15:10;97927.0;;;5.87;84.3
23361;BME280;11852;50.082;18.554;2023-12-20T03:16:15;97932.0;;;5.84;84.82
23361;BME280;11852;50.082;18.554;2023-12-20T03:17:20;97930.0;;;5.8;85.22
23361;BME280;11852;50.082;18.554;2023-12-20T03:18:25;97938.0;;;5.83;85.81
23361;BME280;11852;50.082;18.554;2023-12-20T03:19:30;97934.0;;;5.84;85.83
23361;BME280;11852;50.082;18.554;2023-12-20T03:20:35;97939.0;;;5.66;86.94
23361;BME280;11852;50.082;18.554;2023-12-20T03:21:42;97931.0;;;5.47;87.34
23361;BME280;11852;50.082;18.554;2023-12-20T03:22:47;97937.0;;;5.4;88.2
23361;BME280;11852;50.082;18.554;2023-12-20T03:23:53;97928.0;;;5.44;88.58
23361;BME280;11852;50.082;18.554;2023-12-20T03:24:58;97928.0;;;5.47;88.96
23361;BME280;11852;50.082;18.554;2023-12-20T03:26:06;97933.0;;;5.39;89.67
23361;BME280;11852;50.082;18.554;2023-12-20T03:27:09;97931.0;;;5.41;89.43
23361;BME280;11852;50.082;18.554;2023-12-20T03:28:14;97931.0;;;5.44;89.51
23361;BME280;11852;50.082;18.554;2023-12-20T03:29:19;97925.0;;;5.14;89.89
23361;BME280;11852;50.082;18.554;2023-12-20T03:30:26;97929.0;;;5.3;89.95
23361;BME280;11852;50.082;18.554;2023-12-20T03:31:31;97927.0;;;5.27;90.57
23361;BME280;11852;50.082;18.554;2023-12-20T03:32:36;97928.0;;;5.29;90.22
23361;BME280;11852;50.082;18.554;2023-12-20T03:33:41;97926.0;;;5.36;90.02
23361;BME280;11852;50.082;18.554;2023-12-20T03:34:46;97925.0;;;5.22;90.43
23361;BME280;11852;50.082;18.554;2023-12-20T03:35:51;97926.0;;;5.15;90.89
23361;BME280;11852;50.082;18.554;2023-12-20T03:36:56;97933.0;;;5.15;91.34
23361;BME280;11852;50.082;18.554;2023-12-20T03:38:01;97922.0;;;5.13;91.7
23361;BME280;11852;50.082;18.554;2023-12-20T03:39:06;97927.0;;;5.19;91.65
23361;BME280;11852;50.082;18.554;2023-12-20T03:40:11;97930.0;;;5.24;91.72
23361;BME280;11852;50.082;18.554;2023-12-20T03:41:16;97932.0;;;5.06;92.42
23361;BME280;11852;50.082;18.554;2023-12-20T03:42:21;97934.0;;;4.99;92.56
23361;BME280;11852;50.082;18.554;2023-12-20T03:43:26;97931.0;;;5.0;93.32
23361;BME280;11852;50.082;18.554;2023-12-20T03:44:31;97931.0;;;5.01;93.6
23361;BME280;11852;50.082;18.554;2023-12-20T03:45:35;97929.0;;;5.13;93.03
23361;BME280;11852;50.082;18.554;2023-12-20T03:46:40;97938.0;;;5.17;93.2
23361;BME280;11852;50.082;18.554;2023-12-20T03:47:45;97938.0;;;4.99;93.93
23361;BME280;11852;50.082;18.554;2023-12-20T03:48:50;97937.0;;;5.07;93.67
23361;BME280;11852;50.082;18.554;2023-12-20T03:49:55;97939.0;;;5.09;94.08
23361;BME280;11852;50.082;18.554;2023-12-20T03:51:00;97941.0;;;4.9;94.54
23361;BME280;11852;50.082;18.554;2023-12-20T03:52:05;97942.0;;;4.92;94.93
23361;BME280;11852;50.082;18.554;2023-12-20T03:53:10;97934.0;;;4.87;95.14
23361;BME280;11852;50.082;18.554;2023-12-20T03:54:14;97936.0;;;4.98;95.41
23361;BME280;11852;50.082;18.554;2023-12-20T03:55:19;97936.0;;;5.01;95.25
23361;BME280;11852;50.082;18.554;2023-12-20T03:56:24;97944.0;;;4.87;95.85
23361;BME280;11852;50.082;18.554;2023-12-20T03:57:29;97939.0;;;4.87;95.74
23361;BME280;11852;50.082;18.554;2023-12-20T03:58:34;97948.0;;;4.84;96.18
23361;BME280;11852;50.082;18.554;2023-12-20T03:59:38;97950.0;;;4.85;96.25
23361;BME280;11852;50.082;18.554;2023-12-20T04:00:43;97955.0;;;4.9;96.22
23361;BME280;11852;50.082;18.554;2023-12-20T04:01:48;97958.0;;;4.92;96.61
23361;BME280;11852;50.082;18.554;2023-12-20T04:02:53;97959.0;;;4.79;97.25
23361;BME280;11852;50.082;18.554;2023-12-20T04:03:58;97959.0;;;4.73;97.7
23361;BME280;11852;50.082;18.554;2023-12-20T04:05:03;97954.0;;;4.65;98.36
23361;BME280;11852;50.082;18.554;2023-12-20T04:06:08;97952.0;;;4.83;97.45
23361;BME280;11852;50.082;18.554;2023-12-20T04:07:13;97948.0;;;4.92;97.39
23361;BME280;11852;50.082;18.554;2023-12-20T04:08:18;97941.0;;;4.96;97.07
23361;BME280;11852;50.082;18.554;2023-12-20T04:09:23;97936.0;;;4.93;97.43
23361;BME280;11852;50.082;18.554;2023-12-20T04:10:28;97934.0;;;4.96;97.58
23361;BME280;11852;50.082;18.554;2023-12-20T04:11:33;97932.0;;;4.84;97.97
23361;BME280;11852;50.082;18.554;2023-12-20T04:12:38;97931.0;;;4.89;97.56
23361;BME280;11852;50.082;18.554;2023-12-20T04:13:43;97937.0;;;4.83;97.33
23361;BME280;11852;50.082;18.554;2023-12-20T04:14:48;97938.0;;;4.73;97.55
23361;BME280;11852;50.082;18.554;2023-12-20T04:15:52;97937.0;;;4.71;97.92
23361;BME280;11852;50.082;18.554;2023-12-20T04:16:57;97935.0;;;4.7;97.71
23361;BME280;11852;50.082;18.554;2023-12-20T04:18:02;97931.0;;;4.76;98.01
23361;BME280;11852;50.082;18.554;2023-12-20T04:19:11;97930.0;;;4.81;97.91
23361;BME280;11852;50.082;18.554;2023-12-20T04:20:16;97927.0;;;4.85;98.1
23361;BME280;11852;50.082;18.554;2023-12-20T04:21:20;97923.0;;;4.81;97.71
23361;BME280;11852;50.082;18.554;2023-12-20T04:22:25;97921.0;;;4.92;97.36
23361;BME280;11852;50.082;18.554;2023-12-20T04:23:30;97918.0;;;4.72;98.01
23361;BME280;11852;50.082;18.554;2023-12-20T04:24:35;97919.0;;;4.69;97.91
23361;BME280;11852;50.082;18.554;2023-12-20T04:25:40;97916.0;;;4.78;98.0
23361;BME280;11852;50.082;18.554;2023-12-20T04:26:45;97914.0;;;4.76;97.75
23361;BME280;11852;50.082;18.554;2023-12-20T04:27:50;97916.0;;;4.74;98.55
23361;BME280;11852;50.082;18.554;2023-12-20T04:28:54;97912.0;;;4.84;98.03
23361;BME280;11852;50.082;18.554;2023-12-20T04:29:59;97916.0;;;4.84;97.82
23361;BME280;11852;50.082;18.554;2023-12-20T04:31:04;97912.0;;;4.81;98.28
23361;BME280;11852;50.082;18.554;2023-12-20T04:32:09;97915.0;;;4.9;97.84
23361;BME280;11852;50.082;18.554;2023-12-20T04:33:14;97915.0;;;4.93;97.88
23361;BME280;11852;50.082;18.554;2023-12-20T04:34:19;97917.0;;;4.97;97.83
23361;BME280;11852;50.082;18.554;2023-12-20T04:35:24;97914.0;;;4.97;98.12
23361;BME280;11852;50.082;18.554;2023-12-20T04:36:30;97913.0;;;4.94;98.25
23361;BME280;11852;50.082;18.554;2023-12-20T04:37:35;97913.0;;;4.97;98.24
23361;BME280;11852;50.082;18.554;2023-12-20T04:38:40;97915.0;;;5.02;98.0
23361;BME280;11852;50.082;18.554;2023-12-20T04:39:45;97914.0;;;4.96;98.08
23361;BME280;11852;50.082;18.554;2023-12-20T04:40:50;97918.0;;;4.96;98.33
23361;BME280;11852;50.082;18.554;2023-12-20T04:41:55;97915.0;;;5.04;98.24
23361;BME280;11852;50.082;18.554;2023-12-20T04:43:00;97912.0;;;5.03;98.46
23361;BME280;11852;50.082;18.554;2023-12-20T04:44:06;97910.0;;;5.08;98.34
23361;BME280;11852;50.082;18.554;2023-12-20T04:45:11;97910.0;;;5.1;98.35
23361;BME280;11852;50.082;18.554;2023-12-20T04:46:16;97908.0;;;5.13;98.26
23361;BME280;11852;50.082;18.554;2023-12-20T04:47:21;97910.0;;;5.15;98.38
23361;BME280;11852;50.082;18.554;2023-12-20T04:48:26;97909.0;;;5.13;98.45
23361;BME280;11852;50.082;18.554;2023-12-20T04:49:31;97907.0;;;5.13;98.52
23361;BME280;11852;50.082;18.554;2023-12-20T04:50:35;97908.0;;;5.14;98.56
23361;BME280;11852;50.082;18.554;2023-12-20T04:51:40;97906.0;;;5.18;98.59
23361;BME280;11852;50.082;18.554;2023-12-20T04:52:45;97905.0;;;5.21;98.66
23361;BME280;11852;50.082;18.554;2023-12-20T04:53:50;97909.0;;;5.23;98.8
23361;BME280;11852;50.082;18.554;2023-12-20T04:54:55;97906.0;;;5.12;99.01
23361;BME280;11852;50.082;18.554;2023-12-20T04:56:00;97912.0;;;5.12;99.16
23361;BME280;11852;50.082;18.554;2023-12-20T04:57:05;97910.0;;;5.12;99.48
23361;BME280;11852;50.082;18.554;2023-12-20T04:58:09;97910.0;;;5.09;99.55
23361;BME280;11852;50.082;18.554;2023-12-20T04:59:14;97913.0;;;5.05;99.83
23361;BME280;11852;50.082;18.554;2023-12-20T05:00:19;97911.0;;;5.08;99.72
23361;BME280;11852;50.082;18.554;2023-12-20T05:01:24;97907.0;;;5.07;99.87
23361;BME280;11852;50.082;18.554;2023-12-20T05:02:28;97911.0;;;5.08;99.83
23361;BME280;11852;50.082;18.554;2023-12-20T05:03:33;97907.0;;;5.09;99.74
23361;BME280;11852;50.082;18.554;2023-12-20T05:04:38;97907.0;;;5.03;99.72
23361;BME280;11852;50.082;18.554;2023-12-20T05:05:43;97906.0;;;5.03;99.93
23361;BME280;11852;50.082;18.554;2023-12-20T05:06:48;97907.0;;;5.02;100.0
23361;BME280;11852;50.082;18.554;2023-12-20T05:07:53;97909.0;;;5.05;100.0
23361;BME280;11852;50.082;18.554;2023-12-20T05:08:57;97907.0;;;5.03;100.0
23361;BME280;11852;50.082;18.554;2023-12-20T05:10:03;97910.0;;;4.89;100.0
23361;BME280;11852;50.082;18.554;2023-12-20T05:11:07;97904.0;;;4.89;100.0
23361;BME280;11852;50.082;18.554;2023-12-20T05:12:12;97913.0;;;4.93;100.0
23361;BME280;11852;50.082;18.554;2023-12-20T05:13:17;97910.0;;;4.92;100.0
23361;BME280;11852;50.082;18.554;2023-12-20T05:14:21;97907.0;;;4.88;100.0
23361;BME280;11852;50.082;18.554;2023-12-20T05:15:26;97913.0;;;4.96;100.0
23361;BME280;11852;50.082;18.554;2023-12-20T05:16:31;97909.0;;;4.83;100.0
23361;BME280;11852;50.082;18.554;2023-12-20T05:17:36;97913.0;;;4.74;100.0
23361;BME280;11852;50.082;18.554;2023-12-20T05:18:41;97913.0;;;4.74;100.0
23361;BME280;11852;50.082;18.554;2023-12-20T05:19:45;97914.0;;;4.83;100.0
23361;BME280;11852;50.082;18.554;2023-12-20T05:20:50;97917.0;;;4.75;100.0
23361;BME280;11852;50.082;18.554;2023-12-20T05:21:55;97914.0;;;4.86;100.0
23361;BME280;11852;50.082;18.554;2023-12-20T05:23:00;97917.0;;;4.92;100.0
23361;BME280;11852;50.082;18.554;2023-12-20T05:24:05;97918.0;;;4.89;100.0
23361;BME280;11852;50.082;18.554;2023-12-20T05:25:10;97919.0;;;4.81;100.0
23361;BME280;11852;50.082;18.554;2023-12-20T05:26:15;97920.0;;;4.71;100.0
23361;BME280;11852;50.082;18.554;2023-12-20T05:27:20;97918.0;;;4.53;100.0
23361;BME280;11852;50.082;18.554;2023-12-20T05:28:25;97916.0;;;4.66;100.0
23361;BME280;11852;50.082;18.554;2023-12-20T05:29:30;97916.0;;;4.75;100.0
23361;BME280;11852;50.082;18.554;2023-12-20T05:30:35;97918.0;;;4.85;100.0
23361;BME280;11852;50.082;18.554;2023-12-20T05:31:39;97918.0;;;4.77;100.0
23361;BME280;11852;50.082;18.554;2023-12-20T05:32:44;97921.0;;;4.78;100.0
23361;BME280;11852;50.082;18.554;2023-12-20T05:33:49;97926.0;;;4.74;100.0
23361;BME280;11852;50.082;18.554;2023-12-20T05:34:54;97924.0;;;4.82;100.0
23361;BME280;11852;50.082;18.554;2023-12-20T05:35:58;97925.0;;;4.78;100.0
23361;BME280;11852;50.082;18.554;2023-12-20T05:37:03;97930.0;;;4.81;100.0
23361;BME280;11852;50.082;18.554;2023-12-20T05:38:08;97924.0;;;4.84;100.0
23361;BME280;11852;50.082;18.554;2023-12-20T05:39:13;97928.0;;;4.79;100.0
23361;BME280;11852;50.082;18.554;2023-12-20T05:40:18;97929.0;;;4.83;100.0
23361;BME280;11852;50.082;18.554;2023-12-20T05:41:23;97934.0;;;4.87;100.0
23361;BME280;11852;50.082;18.554;2023-12-20T05:42:28;97934.0;;;4.88;100.0
23361;BME280;11852;50.082;18.554;2023-12-20T05:43:33;97932.0;;;4.93;100.0
23361;BME280;11852;50.082;18.554;2023-12-20T05:44:39;97932.0;;;4.85;100.0
23361;BME280;11852;50.082;18.554;2023-12-20T05:45:45;97929.0;;;4.83;100.0
23361;BME280;11852;50.082;18.554;2023-12-20T05:46:50;97928.0;;;4.78;100.0
23361;BME280;11852;50.082;18.554;2023-12-20T05:47:56;97927.0;;;4.8;100.0
23361;BME280;11852;50.082;18.554;2023-12-20T05:49:01;97931.0;;;4.8;100.0
23361;BME280;11852;50.082;18.554;2023-12-20T05:50:06;97932.0;;;4.85;100.0
23361;BME280;11852;50.082;18.554;2023-12-20T05:51:11;97929.0;;;4.86;100.0
23361;BME280;11852;50.082;18.554;2023-12-20T05:52:16;97935.0;;;4.92;100.0
23361;BME280;11852;50.082;18.554;2023-12-20T05:53:21;97931.0;;;4.95;100.0
23361;BME280;11852;50.082;18.554;2023-12-20T05:54:26;97935.0;;;4.95;100.0
23361;BME280;11852;50.082;18.554;2023-12-20T05:55:31;97937.0;;;4.89;100.0